createdAt,value
2018-07-15T11:18:06.859Z,51.10
2018-07-15T11:20:37.028Z,51.00
2018-07-15T11:25:35.298Z,50.00
2018-07-15T11:28:04.200Z,49.20
2018-07-15T11:30:34.172Z,49.00
2018-07-15T11:33:05.135Z,48.70
2018-07-15T11:35:54.435Z,48.30
2018-07-15T11:38:23.336Z,47.80
2018-07-15T11:40:54.773Z,47.70
2018-07-15T11:43:23.767Z,47.30
2018-07-15T11:45:53.132Z,47.40
2018-07-15T11:48:22.570Z,47.70
2018-07-15T11:50:53.085Z,46.80
2018-07-15T11:53:22.629Z,46.60
2018-07-15T11:55:52.990Z,46.60
2018-07-15T11:58:22.203Z,46.60
2018-07-15T12:00:51.615Z,46.50
2018-07-15T12:03:30.819Z,46.60
2018-07-15T12:06:05.127Z,46.70
2018-07-15T12:08:34.538Z,46.50
2018-07-15T12:11:03.980Z,46.30
2018-07-15T12:13:44.575Z,46.50
2018-07-15T12:16:13.956Z,46.40
2018-07-15T12:18:47.318Z,46.40
2018-07-15T12:21:16.186Z,46.30
2018-07-15T12:23:45.125Z,46.20
2018-07-15T12:26:14.046Z,46.10
2018-07-15T12:28:42.939Z,46.10
2018-07-15T12:31:11.826Z,46.10
2018-07-15T12:33:40.694Z,46.20
2018-07-15T12:36:09.568Z,47.20
2018-07-15T12:38:38.464Z,47.00
2018-07-15T12:41:07.460Z,47.10
2018-07-15T12:43:36.334Z,46.80
2018-07-15T12:46:05.365Z,46.90
2018-07-15T12:48:34.234Z,47.10
2018-07-15T12:51:03.070Z,46.70
2018-07-15T12:53:31.984Z,46.50
2018-07-15T12:56:00.843Z,46.50
2018-07-15T12:58:29.794Z,46.30
2018-07-15T13:00:59.143Z,46.40
2018-07-15T13:03:28.565Z,46.30
2018-07-15T13:05:57.910Z,46.30
2018-07-15T13:08:28.439Z,47.20
2018-07-15T13:11:05.314Z,46.30
2018-07-15T13:13:38.174Z,46.40
2018-07-15T13:16:07.647Z,46.40
2018-07-15T13:18:36.958Z,46.40
2018-07-15T13:21:06.365Z,46.30
2018-07-15T13:23:35.775Z,46.90
2018-07-15T13:28:34.338Z,46.60
2018-07-15T13:31:04.732Z,46.40
2018-07-15T13:33:34.268Z,46.80
2018-07-15T13:36:03.598Z,46.50
2018-07-15T13:38:32.927Z,46.50
2018-07-15T13:41:02.206Z,46.00
2018-07-15T13:43:31.471Z,45.60
2018-07-15T13:46:00.925Z,45.60
2018-07-15T13:48:30.222Z,46.10
2018-07-15T13:50:59.596Z,47.40
2018-07-15T13:53:29.368Z,48.10
2018-07-15T13:55:58.889Z,48.40
2018-07-15T13:58:29.373Z,48.40
2018-07-15T14:00:58.703Z,48.60
2018-07-15T14:03:28.136Z,48.20
2018-07-15T14:05:57.479Z,47.50
2018-07-15T14:08:26.845Z,47.00
2018-07-15T14:10:56.236Z,46.80
2018-07-15T14:13:25.607Z,46.70
2018-07-15T14:15:54.954Z,46.30
2018-07-15T14:18:24.331Z,46.10
2018-07-15T14:20:53.617Z,46.20
2018-07-15T14:23:23.095Z,45.80
2018-07-15T14:25:52.321Z,45.60
2018-07-15T14:28:21.195Z,45.20
2018-07-15T14:30:50.070Z,44.80
2018-07-15T14:33:18.968Z,44.60
2018-07-15T14:35:47.815Z,44.50
2018-07-15T14:38:16.721Z,44.30
2018-07-15T14:40:45.573Z,44.30
2018-07-15T14:43:14.444Z,44.20
2018-07-15T14:45:46.275Z,44.00
2018-07-15T14:48:15.143Z,43.90
2018-07-15T14:50:44.414Z,43.70
2018-07-15T14:53:13.400Z,43.80
2018-07-15T14:55:42.226Z,43.70
2018-07-15T14:58:11.843Z,43.60
2018-07-15T15:00:40.704Z,43.90
2018-07-15T15:03:09.551Z,43.60
2018-07-15T15:05:38.407Z,43.80
2018-07-15T15:08:07.606Z,43.60
2018-07-15T15:10:36.449Z,43.50
2018-07-15T15:13:05.387Z,43.70
2018-07-15T15:15:34.262Z,43.50
2018-07-15T15:18:03.263Z,43.80
2018-07-15T15:20:32.182Z,43.70
2018-07-15T15:23:01.065Z,43.50
2018-07-15T15:25:29.887Z,43.60
2018-07-15T15:27:58.807Z,43.60
2018-07-15T15:30:27.682Z,43.90
2018-07-15T15:32:56.586Z,44.00
2018-07-15T15:35:25.481Z,44.00
2018-07-15T15:37:54.382Z,44.00
2018-07-15T15:40:23.215Z,44.00
2018-07-15T15:42:52.061Z,44.20
2018-07-15T15:45:20.949Z,44.10
2018-07-15T15:47:49.792Z,44.30
2018-07-15T15:50:18.672Z,44.00
2018-07-15T15:52:47.501Z,44.00
2018-07-15T15:55:16.373Z,44.30
2018-07-15T15:57:45.319Z,44.00
2018-07-15T16:00:14.240Z,43.80
2018-07-15T16:02:43.119Z,43.90
2018-07-15T16:05:12.007Z,43.90
2018-07-15T16:07:41.067Z,44.10
2018-07-15T16:10:09.996Z,44.10
2018-07-15T16:12:40.023Z,43.80
2018-07-15T16:15:08.917Z,44.00
2018-07-15T16:17:37.741Z,44.00
2018-07-15T16:20:07.061Z,44.10
2018-07-15T16:22:41.613Z,44.20
2018-07-15T16:25:10.481Z,44.20
2018-07-15T16:27:41.414Z,44.30
2018-07-15T16:31:56.771Z,44.10
2018-07-15T16:34:27.786Z,44.50
2018-07-15T16:36:56.810Z,44.20
2018-07-15T16:39:25.707Z,44.00
2018-07-15T16:41:55.706Z,44.20
2018-07-15T16:44:24.592Z,44.00
2018-07-15T16:46:53.463Z,43.80
2018-07-15T16:49:22.340Z,43.70
2018-07-15T16:51:51.167Z,43.60
2018-07-15T16:54:20.086Z,43.30
2018-07-15T16:56:48.930Z,43.30
2018-07-15T16:59:17.827Z,43.20
2018-07-15T17:01:46.673Z,43.30
2018-07-15T17:04:15.580Z,43.20
2018-07-15T17:06:44.421Z,43.10
2018-07-15T17:09:13.306Z,43.30
2018-07-15T17:11:42.195Z,43.30
2018-07-15T17:14:11.185Z,43.30
2018-07-15T17:16:40.056Z,43.30
2018-07-15T17:19:08.919Z,43.60
2018-07-15T17:21:39.536Z,44.10
2018-07-15T17:24:10.275Z,44.10
2018-07-15T17:26:39.271Z,44.00
2018-07-15T17:29:08.156Z,43.90
2018-07-15T17:31:37.127Z,44.20
2018-07-15T17:34:06.262Z,44.10
2018-07-15T17:36:35.194Z,44.10
2018-07-15T17:39:05.164Z,43.90
2018-07-15T17:41:34.136Z,44.00
2018-07-15T17:44:03.228Z,43.90
2018-07-15T17:46:32.231Z,44.10
2018-07-15T17:49:01.127Z,44.70
2018-07-15T17:51:30.028Z,44.00
2018-07-15T17:53:58.867Z,44.10
2018-07-15T17:56:27.734Z,44.00
2018-07-15T17:58:56.660Z,44.10
2018-07-15T18:01:25.486Z,44.30
2018-07-15T18:03:54.372Z,44.20
2018-07-15T18:06:23.264Z,44.30
2018-07-15T18:08:52.120Z,44.60
2018-07-15T18:11:21.002Z,44.70
2018-07-15T18:13:49.845Z,45.00
2018-07-15T18:16:18.714Z,44.50
2018-07-15T18:18:47.542Z,45.50
2018-07-15T18:21:16.431Z,45.80
2018-07-15T18:23:45.281Z,45.90
2018-07-15T18:26:14.159Z,46.10
2018-07-15T18:28:43.016Z,46.20
2018-07-15T18:31:11.882Z,46.20
2018-07-15T18:33:40.776Z,46.70
2018-07-15T18:36:09.638Z,46.70
2018-07-15T18:38:38.487Z,46.80
2018-07-15T18:41:07.378Z,46.80
2018-07-15T18:43:36.235Z,46.90
2018-07-15T18:46:05.380Z,47.10
2018-07-15T18:48:34.252Z,47.00
2018-07-15T18:51:03.119Z,47.30
2018-07-15T18:53:31.978Z,47.20
2018-07-15T18:56:00.860Z,47.30
2018-07-15T18:58:29.709Z,47.30
2018-07-15T19:00:58.648Z,47.40
2018-07-15T19:03:27.664Z,47.60
2018-07-15T19:05:56.759Z,47.60
2018-07-15T19:08:25.567Z,47.60
2018-07-15T19:10:54.552Z,47.80
2018-07-15T19:13:23.411Z,47.80
2018-07-15T19:20:49.299Z,47.90
2018-07-15T19:23:19.207Z,47.80
2018-07-15T19:25:48.103Z,47.90
2018-07-15T19:28:16.984Z,48.10
2018-07-15T19:30:45.871Z,48.10
2018-07-15T19:33:14.966Z,48.70
2018-07-15T19:35:43.891Z,48.10
2018-07-15T19:38:12.723Z,48.10
2018-07-15T19:40:41.776Z,48.20
2018-07-15T19:43:10.756Z,48.20
2018-07-15T19:45:39.668Z,48.00
2018-07-15T19:48:08.495Z,48.00
2018-07-15T19:50:37.478Z,48.00
2018-07-15T19:55:34.840Z,48.30
2018-07-15T19:58:03.667Z,48.30
2018-07-15T20:00:32.571Z,48.50
2018-07-15T20:03:01.576Z,48.30
2018-07-15T20:05:30.511Z,48.30
2018-07-15T20:07:59.465Z,48.30
2018-07-15T20:10:28.311Z,48.30
2018-07-15T20:12:57.581Z,48.10
2018-07-15T20:15:26.427Z,48.30
2018-07-15T20:17:55.311Z,48.50
2018-07-15T20:20:24.172Z,48.40
2018-07-15T20:22:53.071Z,48.60
2018-07-15T20:25:21.910Z,48.50
2018-07-15T20:27:50.816Z,48.60
2018-07-15T20:30:19.674Z,48.60
2018-07-15T20:32:48.595Z,48.70
2018-07-15T20:35:17.468Z,48.70
2018-07-15T20:37:46.386Z,48.70
2018-07-15T20:40:15.241Z,48.70
2018-07-15T20:42:44.122Z,48.70
2018-07-15T20:45:12.960Z,48.60
2018-07-15T20:47:41.860Z,48.60
2018-07-15T20:50:10.702Z,48.60
2018-07-15T20:52:39.576Z,48.80
2018-07-15T20:55:08.694Z,48.80
2018-07-15T20:57:37.564Z,48.90
2018-07-15T21:00:06.404Z,49.00
2018-07-15T21:02:35.309Z,49.00
2018-07-15T21:05:04.226Z,49.20
2018-07-15T21:07:34.987Z,49.20
2018-07-15T21:10:03.835Z,49.30
2018-07-15T21:12:32.720Z,49.90
2018-07-15T21:15:01.563Z,49.30
2018-07-15T21:17:30.451Z,49.40
2018-07-15T21:22:27.811Z,50.20
2018-07-15T21:24:56.679Z,49.50
2018-07-15T21:27:25.595Z,49.60
2018-07-15T21:29:54.550Z,49.50
2018-07-15T21:32:23.460Z,49.50
2018-07-15T21:34:52.335Z,49.50
2018-07-15T21:37:21.799Z,49.60
2018-07-15T21:39:50.647Z,49.70
2018-07-15T21:42:19.615Z,49.80
2018-07-15T21:44:48.479Z,49.70
2018-07-15T21:47:18.130Z,49.70
2018-07-15T21:49:46.972Z,49.70
2018-07-15T21:52:15.846Z,49.80
2018-07-15T21:54:44.711Z,49.70
2018-07-15T21:57:17.088Z,49.80
2018-07-15T21:59:45.926Z,49.90
2018-07-15T22:02:14.878Z,49.80
2018-07-15T22:04:43.736Z,49.70
2018-07-15T22:07:23.555Z,49.80
2018-07-15T22:10:16.194Z,50.40
2018-07-15T22:12:45.073Z,50.00
2018-07-15T22:15:13.931Z,50.00
2018-07-15T22:17:42.787Z,49.80
2018-07-15T22:20:11.622Z,50.00
2018-07-15T22:22:40.492Z,50.20
2018-07-15T22:25:09.372Z,50.30
2018-07-15T22:27:38.378Z,50.30
2018-07-15T22:30:07.280Z,49.80
2018-07-15T22:32:36.198Z,50.30
2018-07-15T22:35:05.124Z,50.40
2018-07-15T22:37:34.032Z,50.70
2018-07-15T22:40:02.911Z,50.70
2018-07-15T22:42:31.808Z,50.90
2018-07-15T22:45:00.648Z,50.80
2018-07-15T22:47:29.583Z,51.10
2018-07-15T22:49:58.438Z,50.90
2018-07-15T22:52:27.339Z,50.90
2018-07-15T22:54:56.202Z,50.90
2018-07-15T22:57:25.079Z,50.20
2018-07-15T23:02:22.599Z,50.50
2018-07-15T23:06:00.594Z,50.40
2018-07-15T23:08:30.575Z,50.50
2018-07-15T23:10:59.457Z,50.50
2018-07-15T23:13:28.332Z,50.60
2018-07-15T23:15:57.538Z,50.70
2018-07-15T23:18:26.413Z,50.80
2018-07-15T23:20:55.291Z,51.00
2018-07-15T23:23:24.205Z,51.00
2018-07-15T23:25:53.089Z,51.10
2018-07-15T23:28:21.974Z,51.10
2018-07-15T23:30:50.866Z,51.20
2018-07-15T23:33:19.762Z,51.30
2018-07-15T23:35:49.979Z,51.30
2018-07-15T23:38:19.086Z,51.40
2018-07-15T23:40:48.338Z,51.50
2018-07-15T23:43:17.349Z,51.50
2018-07-15T23:45:47.086Z,51.60
2018-07-15T23:48:16.450Z,51.50
2018-07-15T23:50:45.474Z,51.40
2018-07-15T23:53:14.596Z,51.50
2018-07-15T23:55:47.179Z,51.60
2018-07-15T23:58:17.254Z,51.80
